Estación Meteorológica Peña el Pijo (Robertgarden) [ 02/03/23 02:52:49 CET ]

Fecha Hora Presion(HPa) Temp (°C) Humedad % Rocio (°C) Viento ( m/s) Direccion Lluvia 1Hora(mm) Lluvia 24H(mm) LLuvia Total(mm)
2010-Mar-15 01:01:12 1015.800 -1.5 80 -4.5         100.49
2010-Mar-15 02:03:17 1015.400 -1.9 81 -4.7         100.49
2010-Mar-15 03:01:13 1015.200 -2.4 82 -5.1         100.49
2010-Mar-15 04:01:13 1014.800 -2.9 82 -5.6         100.49
2010-Mar-15 05:01:13 1014.600 -3.1 83 -5.6         100.49
2010-Mar-15 06:01:14 1015.100 -3.0 83 -5.5         100.49
2010-Mar-15 07:01:13 1015.100 -3.5 82 -6.1         100.49
2010-Mar-15 08:01:12 1015.300 -3.7 83 -6.2         100.49
2010-Mar-15 09:01:15 1015.500 1.3 79 -2.0         100.49
2010-Mar-15 10:01:00 1015.600 7.3 60 0.1         100.49
2010-Mar-15 11:01:13 1015.400 10.8 36 -3.8         100.49
2010-Mar-15 12:01:13 1014.900 13.6 29 -4.2         100.49
2010-Mar-15 13:01:13 1014.700 15.6 27 -3.5         100.49
2010-Mar-15 14:01:18 1013.900 17.6 26 -2.4         100.49
2010-Mar-15 15:01:14 1013.300 16.3 26 -3.5         100.49
2010-Mar-15 16:01:11 1012.800 16.4 28 -2.3         100.49
2010-Mar-15 17:01:11 1012.700 15.2 30 -2.2 2.0 NNW     100.49
2010-Mar-15 18:01:13 1012.900 13.8 32 -2.7         100.49
2010-Mar-15 19:01:12 1013.500 10.2 38 -3.6         100.49
2010-Mar-15 20:01:13 1014.000 6.9 50 -2.8         100.49
2010-Mar-15 21:01:15 1014.600 4.3 59 -3.0         100.49
2010-Mar-15 22:01:16 1014.800 1.8 69 -3.3         100.49
2010-Mar-15 23:01:15 1014.900 0.4 74 -3.7         100.49

Temperatura Máxima:17°    Temperatura Mínima:-3°
Presión Máxima:1015.800 Hpa    Presión Mínima:1012.700 Hpa


Volver